Time;durP1;ratioP1;P1;durP2;ratioP2;P2;SDS_P1;SDS_P2;PMS_P1;PMS_P2;Temp;Humidity;BMP_temperature;BMP_pressure;BME280_temperature;BME280_humidity;BME280_pressure;Samples;Min_cycle;Max_cycle;Signal;HPM_P1;HPM_P2
2022/03/26 00:02:17;;;;;;;29.15;10.23;;;5.70;99.90;;;;;;5095858;28;20080;-76
2022/03/26 00:04:43;;;;;;;25.95;10.85;;;5.70;99.90;;;;;;5092134;28;20099;-76
2022/03/26 00:07:09;;;;;;;25.58;9.38;;;5.70;99.90;;;;;;5096746;28;20365;-75
2022/03/26 00:09:35;;;;;;;30.90;10.45;;;5.70;99.90;;;;;;5096670;28;20041;-76
2022/03/26 00:12:00;;;;;;;29.77;10.43;;;5.70;99.90;;;;;;5096505;28;20565;-75
2022/03/26 00:14:26;;;;;;;30.20;9.50;;;5.60;99.90;;;;;;5096618;28;20500;-76
2022/03/26 00:16:51;;;;;;;31.67;9.85;;;5.60;99.90;;;;;;5095291;28;20020;-76
2022/03/26 00:19:17;;;;;;;29.13;10.13;;;5.50;99.90;;;;;;5079192;28;20025;-76
2022/03/26 00:21:43;;;;;;;29.80;9.60;;;5.40;99.90;;;;;;5075847;28;20028;-76
2022/03/26 00:24:08;;;;;;;24.75;9.30;;;5.30;99.90;;;;;;5076116;28;20044;-75
2022/03/26 00:26:34;;;;;;;30.05;10.25;;;5.30;99.90;;;;;;5076545;28;20343;-75
2022/03/26 00:29:00;;;;;;;26.15;8.77;;;5.30;99.90;;;;;;5076039;28;20023;-76
2022/03/26 00:31:26;;;;;;;27.52;8.73;;;5.30;99.90;;;;;;5075877;28;20059;-76
2022/03/26 00:33:53;;;;;;;22.80;8.95;;;5.30;99.90;;;;;;5086636;28;20051;-76
2022/03/26 00:36:20;;;;;;;28.02;9.02;;;5.30;99.90;;;;;;5079331;28;20032;-75
2022/03/26 00:38:45;;;;;;;30.38;10.02;;;5.30;99.90;;;;;;5074506;28;20143;-75
2022/03/26 00:41:11;;;;;;;30.05;9.18;;;5.30;99.90;;;;;;5075719;28;20067;-74
2022/03/26 00:43:37;;;;;;;27.30;10.43;;;5.30;99.90;;;;;;5074496;28;20078;-75
2022/03/26 00:46:02;;;;;;;30.60;10.60;;;5.30;99.90;;;;;;5074432;28;20027;-75
2022/03/26 00:48:28;;;;;;;31.13;9.32;;;5.30;99.90;;;;;;5075687;28;20008;-75
2022/03/26 00:50:54;;;;;;;31.50;10.73;;;5.30;99.90;;;;;;5095673;28;20069;-74
2022/03/26 00:53:19;;;;;;;36.88;10.43;;;5.30;99.90;;;;;;5093441;28;20076;-74
2022/03/26 00:55:45;;;;;;;29.27;10.57;;;5.30;99.90;;;;;;5095618;28;20099;-74
2022/03/26 00:58:11;;;;;;;33.83;10.32;;;5.30;99.90;;;;;;5095881;28;20027;-74
2022/03/26 01:00:36;;;;;;;34.70;11.38;;;5.30;99.90;;;;;;5095517;28;20073;-74
2022/03/26 01:03:08;;;;;;;32.35;9.80;;;5.30;99.90;;;;;;5094167;28;20500;-74
2022/03/26 01:05:34;;;;;;;33.33;9.98;;;5.30;99.90;;;;;;5076213;28;20557;-75
2022/03/26 01:08:00;;;;;;;30.98;10.20;;;5.20;99.90;;;;;;5078655;28;20052;-75
2022/03/26 01:10:26;;;;;;;31.67;10.45;;;5.20;99.90;;;;;;5075551;28;20025;-75
2022/03/26 01:12:52;;;;;;;36.70;10.77;;;5.20;99.90;;;;;;5075819;28;20378;-75
2022/03/26 01:15:18;;;;;;;32.78;11.32;;;5.20;99.90;;;;;;5073856;28;20024;-75
2022/03/26 01:17:44;;;;;;;27.95;10.52;;;5.20;99.90;;;;;;5078419;28;20048;-75
2022/03/26 01:20:10;;;;;;;30.92;10.45;;;5.10;99.90;;;;;;5095046;28;20389;-75
2022/03/26 01:22:36;;;;;;;31.60;10.68;;;5.10;99.90;;;;;;5095047;28;20500;-75
2022/03/26 01:25:03;;;;;;;35.45;9.27;;;5.10;99.90;;;;;;5095303;28;20020;-75
2022/03/26 01:27:28;;;;;;;28.05;11.02;;;5.00;99.90;;;;;;5093747;28;20365;-75
2022/03/26 01:29:54;;;;;;;27.05;10.00;;;5.00;99.90;;;;;;5093664;28;20027;-75
2022/03/26 01:32:19;;;;;;;35.33;12.27;;;4.90;99.90;;;;;;5092906;28;20028;-75
2022/03/26 01:34:46;;;;;;;29.30;9.75;;;4.90;99.90;;;;;;5091865;28;20033;-74
2022/03/26 01:37:12;;;;;;;30.15;10.60;;;5.00;99.90;;;;;;5094796;28;20020;-74
2022/03/26 01:39:37;;;;;;;32.45;10.57;;;4.90;99.90;;;;;;5093266;28;20024;-75
2022/03/26 01:42:07;;;;;;;36.70;11.13;;;4.90;99.90;;;;;;5094879;28;20024;-75
2022/03/26 01:44:33;;;;;;;34.97;11.43;;;4.90;99.90;;;;;;5093520;28;20024;-75
2022/03/26 01:47:00;;;;;;;30.48;10.45;;;4.90;99.90;;;;;;5086294;28;20119;-75
2022/03/26 01:49:26;;;;;;;27.80;9.93;;;4.90;99.90;;;;;;5074171;28;20016;-75
2022/03/26 01:51:52;;;;;;;31.17;9.85;;;4.90;99.90;;;;;;5072979;28;20017;-75
2022/03/26 01:54:19;;;;;;;39.13;12.18;;;4.90;99.90;;;;;;5074576;28;20074;-75
2022/03/26 01:56:44;;;;;;;33.60;9.82;;;4.90;99.90;;;;;;5074638;28;20025;-75
2022/03/26 01:59:11;;;;;;;31.27;10.82;;;4.90;99.90;;;;;;5072747;28;20020;-75
2022/03/26 02:01:37;;;;;;;30.63;9.38;;;5.00;99.90;;;;;;5080698;28;20377;-75
2022/03/26 02:04:05;;;;;;;31.13;10.57;;;5.00;99.90;;;;;;5093814;28;20023;-76
2022/03/26 02:06:32;;;;;;;29.83;9.70;;;5.00;99.90;;;;;;5094231;28;20047;-75
2022/03/26 02:09:01;;;;;;;40.63;11.43;;;5.00;99.90;;;;;;5094361;28;20024;-75
2022/03/26 02:11:30;;;;;;;;;;;5.00;99.90;;;;;;5093441;28;20028;-75
2022/03/26 02:13:56;;;;;;;;;;;5.00;99.90;;;;;;5094782;28;19908;-75
2022/03/26 02:16:24;;;;;;;25.75;9.45;;;5.00;99.90;;;;;;5092683;28;19919;-74
2022/03/26 02:18:51;;;;;;;25.20;9.13;;;4.90;99.90;;;;;;5079249;28;20039;-75
2022/03/26 02:21:18;;;;;;;34.72;10.43;;;4.90;99.90;;;;;;5074338;28;20024;-74
2022/03/26 02:23:44;;;;;;;26.77;9.57;;;4.90;99.90;;;;;;5073672;28;20367;-74
2022/03/26 02:26:09;;;;;;;26.35;9.57;;;4.90;99.90;;;;;;5073772;28;20020;-74
2022/03/26 02:28:35;;;;;;;24.10;9.20;;;4.80;99.90;;;;;;5073866;28;20023;-74
2022/03/26 02:31:01;;;;;;;25.98;9.45;;;4.80;99.90;;;;;;5072416;28;20108;-74
2022/03/26 02:33:26;;;;;;;33.38;10.55;;;4.80;99.90;;;;;;5073600;28;20055;-75
2022/03/26 02:35:52;;;;;;;28.52;10.02;;;4.80;99.90;;;;;;5073534;28;20027;-74
2022/03/26 02:38:18;;;;;;;31.52;10.90;;;4.80;99.90;;;;;;5074068;28;20034;-74
2022/03/26 02:40:45;;;;;;;33.40;10.63;;;4.90;99.90;;;;;;5073393;28;20024;-74
2022/03/26 02:43:11;;;;;;;35.08;10.07;;;4.90;99.90;;;;;;5074017;28;20103;-74
2022/03/26 02:45:36;;;;;;;31.13;9.02;;;4.90;99.90;;;;;;5073535;28;20125;-74
2022/03/26 02:48:02;;;;;;;35.03;11.27;;;4.90;99.90;;;;;;5073593;28;20043;-74
2022/03/26 02:50:28;;;;;;;29.35;10.48;;;4.90;99.90;;;;;;5072081;28;20017;-74
2022/03/26 02:52:54;;;;;;;35.00;9.75;;;5.00;99.90;;;;;;5073622;28;20013;-74
2022/03/26 02:55:19;;;;;;;35.55;11.20;;;5.00;99.90;;;;;;5073339;28;20501;-74
2022/03/26 02:57:46;;;;;;;38.30;12.90;;;5.00;99.90;;;;;;5072074;28;20012;-74
2022/03/26 03:00:14;;;;;;;36.95;12.07;;;5.00;99.90;;;;;;5073125;28;20036;-74
2022/03/26 03:02:40;;;;;;;31.88;11.32;;;5.00;99.90;;;;;;5073244;28;20027;-74
2022/03/26 03:05:06;;;;;;;32.67;12.00;;;5.00;99.90;;;;;;5072074;28;20032;-74
2022/03/26 03:07:32;;;;;;;38.97;11.85;;;5.00;99.90;;;;;;5073185;28;20025;-74
2022/03/26 03:09:58;;;;;;;36.47;11.77;;;5.00;99.90;;;;;;5073054;28;20032;-74
2022/03/26 03:12:25;;;;;;;32.00;11.65;;;5.00;99.90;;;;;;5071871;28;20024;-74
2022/03/26 03:14:51;;;;;;;33.13;10.82;;;5.00;99.90;;;;;;5087257;28;20024;-74
2022/03/26 03:17:17;;;;;;;31.98;10.75;;;5.00;99.90;;;;;;5096742;28;20062;-74
2022/03/26 03:19:42;;;;;;;32.70;12.05;;;5.00;99.90;;;;;;5097322;28;20374;-73
2022/03/26 03:22:08;;;;;;;34.55;10.88;;;5.00;99.90;;;;;;5096239;28;20020;-73
2022/03/26 03:24:34;;;;;;;34.10;11.40;;;5.00;99.90;;;;;;5097441;28;20089;-72
2022/03/26 03:26:59;;;;;;;37.45;12.23;;;5.00;99.90;;;;;;5097843;28;20016;-73
2022/03/26 03:29:25;;;;;;;37.53;12.70;;;5.00;99.90;;;;;;5088902;28;20042;-75
2022/03/26 03:31:51;;;;;;;36.38;11.35;;;5.00;99.90;;;;;;5076901;28;20073;-75
2022/03/26 03:34:16;;;;;;;37.03;12.05;;;4.90;99.90;;;;;;5077197;28;20082;-75
2022/03/26 03:36:42;;;;;;;31.15;10.75;;;4.80;99.90;;;;;;5076796;28;20025;-75
2022/03/26 03:39:07;;;;;;;24.77;10.02;;;4.80;99.90;;;;;;5075662;28;20039;-75
2022/03/26 03:41:34;;;;;;;30.33;10.60;;;4.70;99.90;;;;;;5076799;28;20021;-76
2022/03/26 03:44:02;;;;;;;33.10;10.65;;;4.60;99.90;;;;;;5088705;28;20077;-75
2022/03/26 03:46:31;;;;;;;29.52;10.23;;;4.50;99.90;;;;;;5092535;28;20432;-76
2022/03/26 03:48:57;;;;;;;29.92;10.00;;;4.40;99.90;;;;;;5076500;28;20463;-75
2022/03/26 03:51:23;;;;;;;34.92;11.10;;;4.30;99.90;;;;;;5075295;28;20077;-75
2022/03/26 03:53:48;;;;;;;31.60;10.45;;;4.20;99.90;;;;;;5076658;28;20035;-76
2022/03/26 03:56:14;;;;;;;24.27;8.90;;;4.10;99.90;;;;;;5075331;28;20024;-75
2022/03/26 03:58:39;;;;;;;30.25;10.07;;;4.00;99.90;;;;;;5075086;28;20111;-75
2022/03/26 04:01:05;;;;;;;29.55;10.63;;;4.00;99.90;;;;;;5095079;28;20035;-75
2022/03/26 04:03:30;;;;;;;30.95;10.80;;;4.00;99.90;;;;;;5092403;28;20012;-75
2022/03/26 04:05:58;;;;;;;32.45;10.10;;;4.00;99.90;;;;;;5075009;28;20019;-75
2022/03/26 04:08:24;;;;;;;29.58;10.52;;;4.00;99.90;;;;;;5075196;28;20064;-75
2022/03/26 04:10:49;;;;;;;32.20;9.65;;;4.00;99.90;;;;;;5074891;28;20027;-75
2022/03/26 04:13:15;;;;;;;28.98;9.60;;;4.00;99.90;;;;;;5076204;28;20078;-75
2022/03/26 04:15:40;;;;;;;31.75;10.95;;;3.90;99.90;;;;;;5076196;28;20028;-75
2022/03/26 04:18:06;;;;;;;37.20;11.25;;;3.90;99.90;;;;;;5083517;28;20024;-75
2022/03/26 04:20:35;;;;;;;34.20;11.02;;;3.80;99.90;;;;;;5096257;28;20020;-75
2022/03/26 04:23:01;;;;;;;36.58;12.00;;;3.80;99.90;;;;;;5096328;28;20438;-75
2022/03/26 04:25:26;;;;;;;34.60;13.00;;;3.70;99.90;;;;;;5096524;28;20111;-75
2022/03/26 04:27:52;;;;;;;41.17;11.13;;;3.60;99.90;;;;;;5094791;28;20097;-75
2022/03/26 04:30:17;;;;;;;35.35;11.68;;;3.70;99.90;;;;;;5094979;28;20474;-76
2022/03/26 04:32:43;;;;;;;33.38;11.45;;;3.60;99.90;;;;;;5081272;28;20037;-76
2022/03/26 04:35:09;;;;;;;40.78;12.35;;;3.60;99.90;;;;;;5074636;28;20055;-75
2022/03/26 04:37:35;;;;;;;43.55;12.23;;;3.60;99.90;;;;;;5075735;28;20021;-75
2022/03/26 04:40:02;;;;;;;39.55;11.77;;;3.50;99.90;;;;;;5075682;28;20035;-75
2022/03/26 04:42:28;;;;;;;32.83;10.75;;;3.50;99.90;;;;;;5075590;28;20029;-75
2022/03/26 04:44:54;;;;;;;37.13;12.18;;;3.40;99.90;;;;;;5076161;28;20020;-76
2022/03/26 04:47:19;;;;;;;33.47;11.65;;;3.30;99.90;;;;;;5093090;28;20024;-76
2022/03/26 04:49:45;;;;;;;39.42;12.50;;;3.30;99.90;;;;;;5095750;28;20054;-76
2022/03/26 04:52:10;;;;;;;36.72;12.18;;;3.20;99.90;;;;;;5095985;28;20373;-76
2022/03/26 04:54:36;;;;;;;34.38;12.38;;;3.20;99.90;;;;;;5094433;28;20020;-76
2022/03/26 04:57:01;;;;;;;40.28;12.25;;;3.10;99.90;;;;;;5095896;28;20020;-76
2022/03/26 04:59:27;;;;;;;38.20;12.95;;;3.10;99.90;;;;;;5094111;28;20093;-75
2022/03/26 05:01:53;;;;;;;32.42;10.88;;;3.00;99.90;;;;;;5076374;28;20032;-76
2022/03/26 05:04:18;;;;;;;32.78;9.95;;;3.00;99.90;;;;;;5083071;28;20061;-76
2022/03/26 05:06:44;;;;;;;29.50;9.43;;;3.00;99.90;;;;;;5095873;28;20381;-76
2022/03/26 05:09:09;;;;;;;33.53;10.65;;;2.90;99.90;;;;;;5096420;28;20023;-75
2022/03/26 05:11:37;;;;;;;35.78;11.73;;;2.90;99.90;;;;;;5094467;28;20020;-74
2022/03/26 05:14:03;;;;;;;38.55;12.45;;;2.90;99.90;;;;;;5095274;28;20020;-74
2022/03/26 05:16:28;;;;;;;39.60;12.85;;;2.80;99.90;;;;;;5095305;28;20036;-74
2022/03/26 05:18:54;;;;;;;33.70;12.32;;;2.80;99.90;;;;;;5082220;28;20025;-74
2022/03/26 05:21:20;;;;;;;36.92;12.05;;;2.80;99.90;;;;;;5073490;28;20513;-74
2022/03/26 05:23:45;;;;;;;38.00;12.35;;;2.80;99.90;;;;;;5074796;28;20012;-74
2022/03/26 05:26:11;;;;;;;39.80;13.38;;;2.80;99.90;;;;;;5074825;28;20386;-74
2022/03/26 05:28:36;;;;;;;41.13;12.95;;;2.80;99.90;;;;;;5074612;28;20029;-74
2022/03/26 05:31:02;;;;;;;34.92;11.43;;;2.80;99.90;;;;;;5073404;28;20082;-74
2022/03/26 05:33:27;;;;;;;43.88;12.88;;;2.70;99.90;;;;;;5084160;28;20097;-73
2022/03/26 05:35:53;;;;;;;37.47;11.50;;;2.70;99.90;;;;;;5095467;28;20039;-74
2022/03/26 05:38:18;;;;;;;43.97;12.40;;;2.70;99.90;;;;;;5094277;28;20020;-74
2022/03/26 05:40:44;;;;;;;40.17;12.57;;;2.70;99.90;;;;;;5093389;28;20119;-74
2022/03/26 05:43:10;;;;;;;43.33;14.63;;;2.70;99.90;;;;;;5095108;28;20095;-74
2022/03/26 05:45:36;;;;;;;40.30;13.23;;;2.70;99.90;;;;;;5094671;28;20055;-74
2022/03/26 05:48:02;;;;;;;36.92;13.35;;;2.80;99.90;;;;;;5078828;28;20021;-74
2022/03/26 05:50:29;;;;;;;45.30;13.35;;;2.80;99.90;;;;;;5074418;28;20025;-74
2022/03/26 05:52:55;;;;;;;39.85;13.13;;;2.80;99.90;;;;;;5073029;28;20024;-74
2022/03/26 05:55:21;;;;;;;40.83;12.98;;;2.80;99.90;;;;;;5074484;28;20028;-74
2022/03/26 05:57:47;;;;;;;48.83;14.30;;;2.80;99.90;;;;;;5074453;28;20397;-74
2022/03/26 06:00:13;;;;;;;42.50;13.73;;;2.90;99.90;;;;;;5072723;28;20025;-73
2022/03/26 06:02:38;;;;;;;43.80;14.63;;;3.00;99.90;;;;;;5087046;28;20358;-73
2022/03/26 06:05:05;;;;;;;41.03;14.52;;;3.00;99.90;;;;;;5076933;28;20012;-73
2022/03/26 06:07:31;;;;;;;47.75;14.60;;;3.10;99.90;;;;;;5087494;28;20099;-73
2022/03/26 06:09:56;;;;;;;48.53;15.48;;;3.10;99.90;;;;;;5094499;28;20016;-73
2022/03/26 06:12:22;;;;;;;52.65;15.77;;;3.20;99.90;;;;;;5094223;28;20016;-73
2022/03/26 06:14:48;;;;;;;40.72;14.40;;;3.30;99.90;;;;;;5092851;28;20081;-74
2022/03/26 06:17:15;;;;;;;48.15;14.65;;;3.40;99.90;;;;;;5093948;28;20137;-73
2022/03/26 06:19:43;;;;;;;48.28;15.57;;;3.50;99.90;;;;;;5093962;28;20028;-73
2022/03/26 06:22:09;;;;;;;43.03;13.30;;;3.60;99.90;;;;;;5073909;28;20119;-73
2022/03/26 06:24:35;;;;;;;40.88;14.65;;;3.70;99.90;;;;;;5073975;28;20101;-74
2022/03/26 06:27:01;;;;;;;49.60;14.15;;;3.80;99.90;;;;;;5073685;28;20474;-74
2022/03/26 06:29:27;;;;;;;41.42;14.50;;;3.90;99.90;;;;;;5073692;28;20050;-74
2022/03/26 06:31:53;;;;;;;41.13;14.35;;;4.00;99.90;;;;;;5072392;28;20032;-73
2022/03/26 06:34:18;;;;;;;46.88;13.82;;;4.10;99.90;;;;;;5072432;28;20025;-73
2022/03/26 06:36:44;;;;;;;41.60;14.30;;;4.20;99.90;;;;;;5083865;28;20081;-73
2022/03/26 06:39:10;;;;;;;43.00;16.35;;;4.40;99.90;;;;;;5092367;28;20024;-73
2022/03/26 06:41:39;;;;;;;49.40;15.57;;;4.50;99.90;;;;;;5094167;28;20115;-73
2022/03/26 06:44:06;;;;;;;38.85;13.55;;;4.70;99.90;;;;;;5092457;28;20020;-73
2022/03/26 06:46:32;;;;;;;44.83;15.05;;;4.80;99.90;;;;;;5093791;28;20153;-73
2022/03/26 06:48:57;;;;;;;40.40;14.57;;;4.90;99.90;;;;;;5089554;28;20051;-73
2022/03/26 06:51:23;;;;;;;45.17;15.35;;;5.10;99.90;;;;;;5071460;28;20043;-73
2022/03/26 06:53:48;;;;;;;42.88;16.02;;;5.20;99.90;;;;;;5073600;28;20025;-74
2022/03/26 06:56:14;;;;;;;39.38;14.50;;;5.40;99.90;;;;;;5073382;28;20029;-73
2022/03/26 06:58:39;;;;;;;48.20;16.35;;;5.50;99.90;;;;;;5073262;28;20482;-74
2022/03/26 07:01:05;;;;;;;46.35;16.83;;;5.70;99.90;;;;;;5072118;28;20111;-74
2022/03/26 07:03:31;;;;;;;46.92;17.73;;;5.80;99.90;;;;;;5073497;28;20066;-74
2022/03/26 07:05:56;;;;;;;51.08;18.00;;;5.90;99.90;;;;;;5089809;28;20027;-74
2022/03/26 07:08:23;;;;;;;48.70;17.73;;;6.10;99.90;;;;;;5092565;28;20020;-74
2022/03/26 07:10:48;;;;;;;54.15;18.88;;;6.30;99.90;;;;;;5093488;28;20446;-73
2022/03/26 07:13:14;;;;;;;49.17;17.33;;;6.40;99.90;;;;;;5092232;28;20111;-74
2022/03/26 07:15:41;;;;;;;49.28;18.25;;;6.60;99.90;;;;;;5093539;28;20028;-74
2022/03/26 07:18:06;;;;;;;46.58;17.50;;;6.80;99.90;;;;;;5090673;28;20038;-74
2022/03/26 07:20:32;;;;;;;49.75;17.13;;;6.90;99.90;;;;;;5073087;28;20028;-74
2022/03/26 07:22:57;;;;;;;48.72;16.70;;;7.10;99.90;;;;;;5072073;28;20017;-75
2022/03/26 07:25:23;;;;;;;49.50;16.10;;;7.20;99.90;;;;;;5073087;28;20031;-74
2022/03/26 07:27:49;;;;;;;43.88;16.90;;;7.50;99.90;;;;;;5071661;28;20020;-74
2022/03/26 07:30:14;;;;;;;47.67;17.27;;;7.70;99.90;;;;;;5074296;28;20031;-73
2022/03/26 07:32:40;;;;;;;48.90;17.52;;;7.90;99.90;;;;;;5071888;28;20021;-75
2022/03/26 07:35:06;;;;;;;47.05;16.30;;;8.00;99.90;;;;;;5071641;28;20035;-74
2022/03/26 07:37:32;;;;;;;50.50;17.05;;;8.20;99.90;;;;;;5073040;28;20025;-74
2022/03/26 07:39:58;;;;;;;43.70;16.83;;;8.40;99.90;;;;;;5072729;28;20108;-74
2022/03/26 07:42:24;;;;;;;54.83;16.77;;;8.50;99.90;;;;;;5074940;28;20043;-74
2022/03/26 07:44:50;;;;;;;43.95;15.35;;;8.70;99.90;;;;;;5091843;28;20105;-74
2022/03/26 07:47:15;;;;;;;52.28;16.70;;;8.90;99.90;;;;;;5093940;28;20020;-74
2022/03/26 07:49:41;;;;;;;48.42;16.42;;;9.10;99.90;;;;;;5093502;28;20032;-74
2022/03/26 07:52:07;;;;;;;49.15;16.60;;;9.20;99.90;;;;;;5093792;28;20020;-74
2022/03/26 07:54:32;;;;;;;49.97;16.83;;;9.40;99.90;;;;;;5092241;28;20028;-74
2022/03/26 07:56:58;;;;;;;49.90;17.48;;;9.60;99.90;;;;;;5091034;28;20388;-74
2022/03/26 07:59:24;;;;;;;44.13;15.70;;;9.70;99.90;;;;;;5071740;28;20062;-74
2022/03/26 08:01:49;;;;;;;56.78;16.48;;;9.90;99.90;;;;;;5073553;28;20033;-74
2022/03/26 08:04:15;;;;;;;50.95;16.27;;;10.00;99.90;;;;;;5085373;28;20016;-74
2022/03/26 08:06:40;;;;;;;54.38;18.33;;;10.20;99.90;;;;;;5096653;28;20032;-74
2022/03/26 08:09:06;;;;;;;48.47;17.40;;;10.40;99.90;;;;;;5096813;28;20020;-74
2022/03/26 08:11:31;;;;;;;52.35;17.30;;;10.50;99.90;;;;;;5095051;28;20386;-74
2022/03/26 08:13:57;;;;;;;53.80;17.83;;;10.70;99.90;;;;;;5096290;28;20390;-74
2022/03/26 08:16:23;;;;;;;57.45;18.23;;;10.80;99.90;;;;;;5096173;28;20081;-75
2022/03/26 08:18:48;;;;;;;57.72;17.98;;;11.00;99.90;;;;;;5082691;28;20098;-74
2022/03/26 08:21:15;;;;;;;52.92;16.73;;;11.10;99.90;;;;;;5075911;28;20041;-74
2022/03/26 08:23:43;;;;;;;50.22;16.30;;;11.30;99.90;;;;;;5076046;28;20389;-76
2022/03/26 08:26:26;;;;;;;54.58;17.45;;;11.50;99.90;;;;;;5076067;28;20047;-76
2022/03/26 08:28:54;;;;;;;54.63;17.30;;;11.60;99.90;;;;;;5075970;28;20466;-76
2022/03/26 08:31:22;;;;;;;55.67;16.90;;;11.80;99.90;;;;;;5074914;28;20028;-76
2022/03/26 08:33:48;;;;;;;41.70;14.57;;;11.90;99.90;;;;;;5090838;28;20043;-77
2022/03/26 08:36:15;;;;;;;47.15;15.45;;;12.00;99.90;;;;;;5094895;28;20370;-77
2022/03/26 08:38:41;;;;;;;51.13;15.18;;;12.10;99.90;;;;;;5094686;28;20020;-76
2022/03/26 08:41:07;;;;;;;50.28;16.15;;;12.20;99.90;;;;;;5096120;28;20028;-77
2022/03/26 08:43:33;;;;;;;42.70;14.77;;;12.40;99.90;;;;;;5094757;28;20019;-77
2022/03/26 08:45:59;;;;;;;44.65;14.15;;;12.50;99.00;;;;;;5096100;28;20016;-77
2022/03/26 08:48:25;;;;;;;43.80;15.85;;;12.70;98.90;;;;;;5076168;28;20378;-77
2022/03/26 08:50:51;;;;;;;43.17;13.73;;;12.90;98.30;;;;;;5074514;28;20465;-77
2022/03/26 08:53:16;;;;;;;38.47;12.32;;;13.00;97.20;;;;;;5074727;28;20074;-77
2022/03/26 08:55:42;;;;;;;42.38;12.38;;;13.20;97.10;;;;;;5075942;28;20023;-77
2022/03/26 08:58:07;;;;;;;32.45;11.10;;;13.40;95.20;;;;;;5082622;28;20028;-77
2022/03/26 09:00:34;;;;;;;31.80;10.63;;;13.50;94.70;;;;;;5094859;28;20028;-77
2022/03/26 09:03:01;;;;;;;31.20;10.57;;;12.70;93.70;;;;;;5096206;28;20016;-77
2022/03/26 09:05:27;;;;;;;21.60;7.80;;;13.70;93.60;;;;;;5094807;28;20035;-77
2022/03/26 09:07:52;;;;;;;23.15;8.23;;;13.80;92.40;;;;;;5095302;28;20024;-73
2022/03/26 09:10:18;;;;;;;21.90;7.18;;;13.90;91.10;;;;;;5095256;28;20078;-74
2022/03/26 09:12:44;;;;;;;32.58;9.80;;;14.00;90.80;;;;;;5094648;28;20047;-73
2022/03/26 09:15:10;;;;;;;22.45;8.27;;;14.00;90.80;;;;;;5094753;28;20069;-73
2022/03/26 09:17:36;;;;;;;22.00;7.82;;;14.10;90.30;;;;;;5094965;28;20039;-73
2022/03/26 09:20:04;;;;;;;29.10;10.65;;;14.20;90.20;;;;;;5093605;28;20140;-72
2022/03/26 09:22:30;;;;;;;27.13;11.23;;;14.40;88.70;;;;;;5094927;28;20016;-72
2022/03/26 09:24:55;;;;;;;29.20;9.77;;;14.50;87.30;;;;;;5095033;28;20026;-72
2022/03/26 09:27:21;;;;;;;34.80;11.48;;;14.60;86.50;;;;;;5089398;28;20347;-73
2022/03/26 09:29:46;;;;;;;35.95;12.23;;;14.60;86.60;;;;;;5073211;28;20025;-72
2022/03/26 09:32:12;;;;;;;35.38;11.38;;;14.70;85.90;;;;;;5074768;28;20025;-72
2022/03/26 09:34:38;;;;;;;34.05;12.63;;;14.80;85.20;;;;;;5074442;28;20031;-72
2022/03/26 09:37:04;;;;;;;36.38;13.02;;;14.90;81.90;;;;;;5074475;28;20123;-72
2022/03/26 09:39:30;;;;;;;37.90;12.02;;;15.00;81.60;;;;;;5074531;28;20378;-72
2022/03/26 09:41:58;;;;;;;36.28;12.68;;;15.10;81.30;;;;;;5074484;28;20070;-72
2022/03/26 09:44:24;;;;;;;37.78;12.10;;;15.20;78.80;;;;;;5072890;28;20024;-72
2022/03/26 09:46:50;;;;;;;30.98;10.30;;;15.30;78.60;;;;;;5074326;28;20035;-72
2022/03/26 09:49:15;;;;;;;26.08;9.52;;;15.50;77.30;;;;;;5074326;28;20021;-72
2022/03/26 09:51:42;;;;;;;25.00;8.02;;;15.50;75.40;;;;;;5074195;28;20386;-72
2022/03/26 09:54:12;;;;;;;25.20;9.13;;;15.60;76.10;;;;;;5074098;28;20033;-72
2022/03/26 09:56:38;;;;;;;24.35;8.50;;;15.70;75.80;;;;;;5072808;28;20024;-73
2022/03/26 09:59:04;;;;;;;27.33;9.32;;;15.70;73.90;;;;;;5073891;28;20073;-73
2022/03/26 10:01:29;;;;;;;25.45;7.40;;;15.70;73.70;;;;;;5073896;28;20107;-73
2022/03/26 10:04:08;;;;;;;28.23;8.45;;;15.80;72.30;;;;;;5077057;28;20020;-72
2022/03/26 10:06:34;;;;;;;23.00;7.55;;;15.90;72.10;;;;;;5092829;28;20055;-72
2022/03/26 10:08:59;;;;;;;23.42;8.45;;;15.90;71.40;;;;;;5094338;28;20457;-72
2022/03/26 10:11:30;;;;;;;23.92;7.63;;;15.90;68.20;;;;;;5094181;28;20028;-72
2022/03/26 10:13:56;;;;;;;23.33;8.18;;;15.90;69.20;;;;;;5094381;28;20045;-73
2022/03/26 10:16:22;;;;;;;23.58;8.70;;;16.10;70.20;;;;;;5094199;28;20510;-73
2022/03/26 10:18:48;;;;;;;26.75;8.55;;;16.10;67.20;;;;;;5094429;28;20501;-73
2022/03/26 10:21:15;;;;;;;38.72;11.18;;;16.30;66.80;;;;;;5093865;28;20020;-72
2022/03/26 10:23:42;;;;;;;34.45;10.15;;;16.40;66.00;;;;;;5092537;28;20439;-72
2022/03/26 10:26:14;;;;;;;31.45;11.15;;;16.40;63.50;;;;;;5094326;28;20019;-73
2022/03/26 10:28:41;;;;;;;32.58;11.02;;;16.50;63.90;;;;;;5093105;28;20059;-72
2022/03/26 10:34:09;;;;;;;41.03;13.93;;;16.80;61.10;;;;;;5094416;28;20092;-72
2022/03/26 10:36:44;;;;;;;40.53;13.73;;;16.90;61.10;;;;;;5093769;28;20089;-72
2022/03/26 10:39:20;;;;;;;32.58;12.45;;;17.00;60.50;;;;;;5092963;28;20103;-72
2022/03/26 10:41:48;;;;;;;37.90;12.73;;;17.10;60.80;;;;;;5093481;28;20077;-73
2022/03/26 10:44:16;;;;;;;33.22;12.10;;;17.30;59.70;;;;;;5093338;28;20085;-73
2022/03/26 10:46:42;;;;;;;40.70;14.55;;;17.40;59.20;;;;;;5109109;28;20016;-73
2022/03/26 10:49:09;;;;;;;36.70;12.88;;;17.40;59.50;;;;;;5093367;28;20028;-72
2022/03/26 10:51:36;;;;;;;36.92;11.38;;;17.60;58.80;;;;;;5092035;28;20032;-72
2022/03/26 10:54:09;;;;;;;36.17;12.93;;;17.70;57.30;;;;;;5093755;28;20028;-72
2022/03/26 10:56:37;;;;;;;39.33;13.25;;;17.70;56.70;;;;;;5091977;28;20114;-72
2022/03/26 10:59:03;;;;;;;30.60;11.53;;;17.70;58.50;;;;;;5093327;28;20059;-73
2022/03/26 11:01:28;;;;;;;35.10;12.25;;;17.80;57.90;;;;;;5093638;28;20027;-72
2022/03/26 11:03:54;;;;;;;31.13;12.25;;;17.90;57.60;;;;;;5093356;28;20390;-72
2022/03/26 11:06:25;;;;;;;29.83;11.50;;;18.10;57.80;;;;;;5093761;28;20016;-72
2022/03/26 11:08:51;;;;;;;42.65;13.75;;;18.20;56.80;;;;;;5092087;28;20031;-73
2022/03/26 11:11:18;;;;;;;35.33;11.77;;;18.40;57.00;;;;;;5089728;28;20082;-72
2022/03/26 11:13:47;;;;;;;32.55;11.73;;;18.40;56.40;;;;;;5073352;28;20390;-73
2022/03/26 11:16:35;;;;;;;27.70;9.82;;;18.60;55.60;;;;;;5071810;28;20478;-73
2022/03/26 11:19:24;;;;;;;24.50;9.23;;;18.70;56.20;;;;;;5073207;28;20054;-73
2022/03/26 11:22:04;;;;;;;25.80;9.20;;;18.70;54.70;;;;;;5073155;28;20111;-72
2022/03/26 11:24:41;;;;;;;26.00;10.15;;;18.80;53.90;;;;;;5073413;28;20021;-73
2022/03/26 11:27:31;;;;;;;30.08;9.70;;;18.90;54.30;;;;;;5073077;28;20028;-72
2022/03/26 11:30:16;;;;;;;29.08;10.32;;;18.90;55.20;;;;;;5073009;28;20103;-72
2022/03/26 11:32:44;;;;;;;27.98;8.93;;;19.10;55.30;;;;;;5073622;28;20017;-72
2022/03/26 11:35:11;;;;;;;;;;;19.40;54.90;;;;;;5073522;28;20440;-72
2022/03/26 11:38:02;;;;;;;28.45;9.18;;;19.50;54.30;;;;;;5075003;28;19904;-72
2022/03/26 11:40:40;;;;;;;22.20;8.82;;;19.70;52.20;;;;;;5083426;28;20070;-72
2022/03/26 11:43:05;;;;;;;22.75;9.05;;;19.80;51.90;;;;;;5096954;28;20016;-72
2022/03/26 11:51:23;;;;;;;24.92;9.50;;;20.20;51.00;;;;;;5097099;28;20132;-72
2022/03/26 11:54:05;;;;;;;18.17;7.05;;;20.40;50.70;;;;;;5096687;28;20052;-72
2022/03/26 11:56:32;;;;;;;23.98;8.35;;;20.50;49.40;;;;;;5096585;28;20051;-73
2022/03/26 11:59:07;;;;;;;26.35;8.73;;;20.50;49.50;;;;;;5095260;28;20074;-72
2022/03/26 12:01:37;;;;;;;29.42;9.55;;;20.50;50.30;;;;;;5096640;28;20043;-72
2022/03/26 12:04:16;;;;;;;27.85;10.02;;;20.50;48.90;;;;;;5095230;28;20103;-72
2022/03/26 12:06:49;;;;;;;26.23;10.35;;;20.50;51.00;;;;;;5096660;28;20051;-73
2022/03/26 12:09:29;;;;;;;28.80;9.40;;;20.50;50.30;;;;;;5096475;28;20059;-73
2022/03/26 12:12:11;;;;;;;17.20;6.97;;;20.50;50.30;;;;;;5094365;28;20028;-72
2022/03/26 12:15:05;;;;;;;24.90;7.18;;;20.60;49.90;;;;;;5074776;28;20474;-72
2022/03/26 12:17:44;;;;;;;20.40;7.78;;;20.80;48.50;;;;;;5075931;28;20107;-73
2022/03/26 12:20:33;;;;;;;21.20;8.57;;;20.90;49.40;;;;;;5076043;28;20419;-73
2022/03/26 12:23:28;;;;;;;20.10;7.88;;;21.10;47.50;;;;;;5076553;28;20496;-72
2022/03/26 12:26:02;;;;;;;12.68;4.20;;;21.10;47.50;;;;;;5078129;28;20531;-72
2022/03/26 12:28:39;;;;;;;17.20;6.05;;;21.10;46.80;;;;;;5094931;28;20052;-72
2022/03/26 12:31:17;;;;;;;13.57;5.00;;;21.10;46.40;;;;;;5095976;28;20083;-72
2022/03/26 12:33:45;;;;;;;20.98;7.63;;;20.90;47.30;;;;;;5096000;28;20024;-72
2022/03/26 12:36:12;;;;;;;20.98;6.07;;;21.00;47.00;;;;;;5095935;28;20020;-72
2022/03/26 12:38:38;;;;;;;17.10;6.30;;;21.10;46.90;;;;;;5096035;28;20051;-73
2022/03/26 12:41:06;;;;;;;20.05;7.25;;;21.30;46.00;;;;;;5096059;28;20024;-73
2022/03/26 12:43:31;;;;;;;19.02;7.03;;;21.40;46.40;;;;;;5095733;28;20077;-73
2022/03/26 12:46:02;;;;;;;18.70;6.35;;;21.60;46.30;;;;;;5095679;28;20028;-73